createdAt,value
2018-12-12T00:02:14.772Z,3.14
2018-12-12T00:04:44.600Z,3.17
2018-12-12T00:07:14.572Z,3.18
2018-12-12T00:09:44.525Z,3.20
2018-12-12T00:12:14.459Z,3.21
2018-12-12T00:14:44.154Z,3.21
2018-12-12T00:17:14.329Z,3.18
2018-12-12T00:19:44.189Z,3.15
2018-12-12T00:22:13.922Z,3.14
2018-12-12T00:24:48.424Z,3.15
2018-12-12T00:27:18.338Z,3.15
2018-12-12T00:29:50.164Z,3.11
2018-12-12T00:32:20.029Z,3.16
2018-12-12T00:34:49.625Z,3.14
2018-12-12T00:37:21.849Z,3.11
2018-12-12T00:39:54.428Z,3.10
2018-12-12T00:42:24.395Z,3.07
2018-12-12T00:44:54.093Z,3.02
2018-12-12T00:47:23.703Z,3.04
2018-12-12T00:49:53.505Z,3.05
2018-12-12T00:52:23.750Z,3.11
2018-12-12T00:54:54.046Z,3.09
2018-12-12T00:57:23.976Z,3.06
2018-12-12T00:59:53.746Z,3.03
2018-12-12T01:02:23.643Z,3.01
2018-12-12T01:04:53.644Z,3.00
2018-12-12T01:07:23.586Z,3.03
2018-12-12T01:09:55.387Z,3.03
2018-12-12T01:12:26.037Z,3.02
2018-12-12T01:14:56.202Z,3.02
2018-12-12T01:17:27.724Z,3.01
2018-12-12T01:19:57.896Z,2.97
2018-12-12T01:22:27.764Z,2.95
2018-12-12T01:24:57.919Z,2.90
2018-12-12T01:27:28.037Z,2.95
2018-12-12T01:29:57.771Z,2.94
2018-12-12T01:32:27.652Z,2.93
2018-12-12T01:34:57.494Z,2.94
2018-12-12T01:37:27.655Z,2.97
2018-12-12T01:39:57.503Z,2.95
2018-12-12T01:42:27.437Z,2.92
2018-12-12T01:44:57.425Z,2.94
2018-12-12T01:47:27.203Z,2.97
2018-12-12T01:49:57.319Z,2.96
2018-12-12T01:52:27.451Z,2.93
2018-12-12T01:55:01.409Z,2.97
2018-12-12T01:57:31.033Z,2.93
2018-12-12T02:00:01.285Z,2.92
2018-12-12T02:02:31.009Z,2.84
2018-12-12T02:05:01.022Z,2.85
2018-12-12T02:07:30.751Z,2.88
2018-12-12T02:10:00.565Z,2.85
2018-12-12T02:12:30.258Z,2.88
2018-12-12T02:15:00.181Z,2.83
2018-12-12T02:17:30.123Z,2.87
2018-12-12T02:19:59.802Z,2.85
2018-12-12T02:22:29.563Z,2.85
2018-12-12T02:24:59.506Z,2.82
2018-12-12T02:27:29.505Z,2.81
2018-12-12T02:29:59.522Z,2.83
2018-12-12T02:32:29.682Z,2.85
2018-12-12T02:34:59.719Z,2.81
2018-12-12T02:37:29.788Z,2.75
2018-12-12T02:39:59.658Z,2.77
2018-12-12T02:42:29.353Z,2.82
2018-12-12T02:44:59.116Z,2.78
2018-12-12T02:47:31.956Z,2.75
2018-12-12T02:50:02.413Z,2.73
2018-12-12T02:52:32.590Z,2.76
2018-12-12T02:55:02.696Z,2.75
2018-12-12T02:57:32.691Z,2.72
2018-12-12T03:00:02.305Z,2.73
2018-12-12T03:02:32.010Z,2.75
2018-12-12T03:05:01.905Z,2.74
2018-12-12T03:07:31.632Z,2.74
2018-12-12T03:10:01.495Z,2.72
2018-12-12T03:12:31.516Z,2.72
2018-12-12T03:15:01.461Z,2.73
2018-12-12T03:17:31.400Z,2.69
2018-12-12T03:20:01.063Z,2.67
2018-12-12T03:22:31.175Z,2.68
2018-12-12T03:25:00.886Z,2.65
2018-12-12T03:27:30.389Z,2.63
2018-12-12T03:30:00.063Z,2.60
2018-12-12T03:32:29.970Z,2.58
2018-12-12T03:34:59.627Z,2.63
2018-12-12T03:37:29.646Z,2.62
2018-12-12T03:39:59.459Z,2.65
2018-12-12T03:42:29.375Z,2.65
2018-12-12T03:45:02.199Z,2.67
2018-12-12T03:47:29.324Z,2.64
2018-12-12T03:49:58.833Z,2.67
2018-12-12T03:52:29.238Z,2.67
2018-12-12T03:54:59.157Z,2.64
2018-12-12T03:57:28.830Z,2.64
2018-12-12T03:59:59.076Z,2.62
2018-12-12T04:02:28.700Z,2.63
2018-12-12T04:04:58.357Z,2.65
2018-12-12T04:07:28.226Z,2.70
2018-12-12T04:09:58.416Z,2.60
2018-12-12T04:12:28.157Z,2.59
2018-12-12T04:14:58.273Z,2.60
2018-12-12T04:17:28.609Z,2.60
2018-12-12T04:19:58.710Z,2.60
2018-12-12T04:22:28.385Z,2.58
2018-12-12T04:24:58.357Z,2.56
2018-12-12T04:27:30.724Z,2.57
2018-12-12T04:30:00.538Z,2.59
2018-12-12T04:32:30.703Z,2.58
2018-12-12T04:35:00.309Z,2.61
2018-12-12T04:37:30.026Z,2.61
2018-12-12T04:40:00.040Z,2.62
2018-12-12T04:42:29.603Z,2.59
2018-12-12T04:45:01.560Z,2.59
2018-12-12T04:47:31.474Z,2.59
2018-12-12T04:50:01.232Z,2.57
2018-12-12T04:52:30.984Z,2.52
2018-12-12T04:55:04.926Z,2.50
2018-12-12T04:57:32.787Z,2.50
2018-12-12T05:00:02.673Z,2.54
2018-12-12T05:02:32.686Z,2.53
2018-12-12T05:05:02.626Z,2.52
2018-12-12T05:07:32.471Z,2.51
2018-12-12T05:10:02.408Z,2.48
2018-12-12T05:12:32.373Z,2.46
2018-12-12T05:15:02.521Z,2.43
2018-12-12T05:17:32.718Z,2.44
2018-12-12T05:20:02.484Z,2.43
2018-12-12T05:22:34.893Z,2.42
2018-12-12T05:25:04.513Z,2.43
2018-12-12T05:27:34.378Z,2.43
2018-12-12T05:30:04.770Z,2.41
2018-12-12T05:32:37.432Z,2.44
2018-12-12T05:35:07.405Z,2.45
2018-12-12T05:37:39.676Z,2.49
2018-12-12T05:40:12.257Z,2.47
2018-12-12T05:42:42.366Z,2.47
2018-12-12T05:45:13.200Z,2.46
2018-12-12T05:47:43.116Z,2.48
2018-12-12T05:50:13.502Z,2.48
2018-12-12T05:52:43.848Z,2.48
2018-12-12T05:55:17.220Z,2.48
2018-12-12T05:57:47.757Z,2.49
2018-12-12T06:00:17.873Z,2.52
2018-12-12T06:02:47.899Z,2.53
2018-12-12T06:05:17.955Z,2.53
2018-12-12T06:07:50.052Z,2.51
2018-12-12T06:10:20.718Z,2.54
2018-12-12T06:12:50.984Z,2.50
2018-12-12T06:15:21.276Z,2.49
2018-12-12T06:17:51.349Z,2.49
2018-12-12T06:20:21.234Z,2.50
2018-12-12T06:22:51.279Z,2.51
2018-12-12T06:25:21.220Z,2.50
2018-12-12T06:27:51.340Z,2.51
2018-12-12T06:30:21.677Z,2.47
2018-12-12T06:32:51.509Z,2.46
2018-12-12T06:35:21.251Z,2.44
2018-12-12T06:37:51.413Z,2.42
2018-12-12T06:40:21.595Z,2.44
2018-12-12T06:42:51.781Z,2.42
2018-12-12T06:45:21.541Z,2.41
2018-12-12T06:47:51.310Z,2.41
2018-12-12T06:50:21.511Z,2.38
2018-12-12T06:52:51.631Z,2.37
2018-12-12T06:55:21.530Z,2.36
2018-12-12T06:57:51.871Z,2.35
2018-12-12T07:00:24.127Z,2.33
2018-12-12T07:02:52.002Z,2.33
2018-12-12T07:05:21.814Z,2.33
2018-12-12T07:07:51.642Z,2.31
2018-12-12T07:10:21.974Z,2.31
2018-12-12T07:12:52.158Z,2.29
2018-12-12T07:15:22.424Z,2.29
2018-12-12T07:17:52.425Z,2.28
2018-12-12T07:20:22.120Z,2.28
2018-12-12T07:22:51.640Z,2.33
2018-12-12T07:25:21.250Z,2.37
2018-12-12T07:27:51.009Z,2.46
2018-12-12T07:30:20.653Z,2.50
2018-12-12T07:32:50.685Z,2.51
2018-12-12T07:35:22.335Z,2.48
2018-12-12T07:37:52.280Z,2.44
2018-12-12T07:40:22.275Z,2.45
2018-12-12T07:42:52.811Z,2.48
2018-12-12T07:45:22.840Z,2.48
2018-12-12T07:47:52.720Z,2.50
2018-12-12T07:50:22.512Z,2.50
2018-12-12T07:52:52.790Z,2.50
2018-12-12T07:55:26.566Z,2.47
2018-12-12T07:57:54.561Z,2.45
2018-12-12T08:00:24.584Z,2.44
2018-12-12T08:02:54.500Z,2.44
2018-12-12T08:05:25.224Z,2.46
2018-12-12T08:07:55.553Z,2.52
2018-12-12T08:10:25.615Z,2.54
2018-12-12T08:12:55.883Z,2.59
2018-12-12T08:15:31.221Z,2.64
2018-12-12T08:18:01.902Z,2.66
2018-12-12T08:20:32.091Z,2.69
2018-12-12T08:23:02.724Z,2.73
2018-12-12T08:25:34.932Z,2.73
2018-12-12T08:28:05.765Z,2.73
2018-12-12T08:30:35.942Z,2.72
2018-12-12T08:33:11.107Z,2.74
2018-12-12T08:35:36.102Z,2.75
2018-12-12T08:38:05.995Z,2.78
2018-12-12T08:40:35.862Z,2.84
2018-12-12T08:43:05.671Z,2.79
2018-12-12T08:45:35.886Z,2.81
2018-12-12T08:48:05.856Z,2.86
2018-12-12T08:50:38.487Z,2.94
2018-12-12T08:53:08.317Z,3.00
2018-12-12T08:55:38.201Z,3.01
2018-12-12T08:58:08.083Z,3.05
2018-12-12T09:00:38.038Z,3.07
2018-12-12T09:03:08.349Z,3.11
2018-12-12T09:05:40.140Z,3.11
2018-12-12T09:08:08.076Z,3.16
2018-12-12T09:10:37.989Z,3.20
2018-12-12T09:13:08.207Z,3.24
2018-12-12T09:15:41.779Z,3.33
2018-12-12T09:18:08.331Z,3.35
2018-12-12T09:20:38.361Z,3.42
2018-12-12T09:23:08.480Z,3.46
2018-12-12T09:25:38.942Z,3.54
2018-12-12T09:28:11.689Z,2.17
2018-12-12T09:30:44.434Z,3.61
2018-12-12T09:33:14.633Z,3.67
2018-12-12T09:35:44.407Z,3.68
2018-12-12T09:38:17.672Z,3.66
2018-12-12T09:40:53.167Z,3.65
2018-12-12T09:43:23.170Z,3.60
2018-12-12T09:45:53.122Z,3.58
2018-12-12T09:48:23.198Z,3.59
2018-12-12T09:50:52.853Z,3.60
2018-12-12T09:53:23.123Z,3.66
2018-12-12T09:56:02.526Z,3.70
2018-12-12T09:58:32.220Z,3.76
2018-12-12T10:01:02.207Z,3.85
2018-12-12T10:03:32.357Z,3.93
2018-12-12T10:06:02.527Z,3.96
2018-12-12T10:08:32.264Z,4.01
2018-12-12T10:11:02.360Z,4.08
2018-12-12T10:13:32.271Z,4.13
2018-12-12T10:16:02.531Z,4.15
2018-12-12T10:18:32.528Z,4.16
2018-12-12T10:21:02.338Z,4.22
2018-12-12T10:23:32.417Z,4.17
2018-12-12T10:26:02.663Z,4.11
2018-12-12T10:28:32.506Z,4.07
2018-12-12T10:31:02.348Z,4.10
2018-12-12T10:33:37.587Z,4.15
2018-12-12T10:36:02.768Z,4.23
2018-12-12T10:38:33.350Z,4.37
2018-12-12T10:41:03.231Z,4.49
2018-12-12T10:43:33.337Z,4.57
2018-12-12T10:46:06.166Z,4.75
2018-12-12T10:48:36.640Z,4.97
2018-12-12T10:51:06.662Z,5.19
2018-12-12T10:53:36.635Z,5.44
2018-12-12T10:56:09.158Z,5.43
2018-12-12T10:58:39.029Z,5.84
2018-12-12T11:01:29.268Z,6.18
2018-12-12T11:03:59.228Z,6.31
2018-12-12T11:06:32.096Z,6.41
2018-12-12T11:09:01.822Z,6.45
2018-12-12T11:11:32.179Z,6.22
2018-12-12T11:14:02.835Z,6.32
2018-12-12T11:16:33.084Z,6.31
2018-12-12T11:19:02.710Z,6.12
2018-12-12T11:21:32.867Z,6.03
2018-12-12T11:24:02.719Z,5.94
2018-12-12T11:26:32.716Z,5.95
2018-12-12T11:29:02.847Z,5.88
2018-12-12T11:31:32.936Z,5.97
2018-12-12T11:34:02.666Z,6.06
2018-12-12T11:36:32.703Z,6.22
2018-12-12T11:39:02.421Z,6.18
2018-12-12T11:41:32.375Z,6.17
2018-12-12T11:44:02.142Z,6.24
2018-12-12T11:46:32.195Z,6.22
2018-12-12T11:49:02.149Z,6.36
2018-12-12T11:51:31.622Z,6.46
2018-12-12T11:54:01.583Z,6.95
2018-12-12T11:56:31.950Z,7.10
2018-12-12T11:59:01.822Z,6.98
2018-12-12T12:01:31.779Z,6.98
2018-12-12T12:04:01.617Z,7.05
2018-12-12T12:06:31.674Z,7.46
2018-12-12T12:09:01.902Z,8.21
2018-12-12T12:11:32.409Z,9.23
2018-12-12T12:14:02.324Z,10.07
2018-12-12T12:16:32.083Z,10.68
2018-12-12T12:19:02.379Z,11.42
2018-12-12T12:21:32.318Z,11.65
2018-12-12T12:24:05.084Z,11.91
2018-12-12T12:26:35.170Z,12.34
2018-12-12T12:29:04.910Z,12.75
2018-12-12T12:31:37.701Z,12.57
2018-12-12T12:34:07.764Z,12.08
2018-12-12T12:36:37.544Z,11.30
2018-12-12T12:39:08.928Z,10.43
2018-12-12T12:41:38.645Z,9.63
2018-12-12T12:44:11.492Z,8.20
2018-12-12T12:46:39.821Z,8.20
2018-12-12T12:49:09.627Z,7.79
2018-12-12T12:51:39.837Z,7.54
2018-12-12T12:54:09.890Z,7.23
2018-12-12T12:56:39.797Z,6.94
2018-12-12T12:59:09.311Z,6.72
2018-12-12T13:01:39.930Z,6.50
2018-12-12T13:04:10.064Z,6.31
2018-12-12T13:06:39.455Z,6.16
2018-12-12T13:09:09.846Z,5.96
2018-12-12T13:11:39.518Z,5.85
2018-12-12T13:14:11.720Z,5.79
2018-12-12T13:16:41.888Z,5.72
2018-12-12T13:19:13.056Z,5.62
2018-12-12T13:21:42.807Z,5.55
2018-12-12T13:24:12.609Z,5.45
2018-12-12T13:26:42.458Z,5.41
2018-12-12T13:29:11.819Z,5.39
2018-12-12T13:31:41.868Z,5.32
2018-12-12T13:34:16.185Z,5.26
2018-12-12T13:36:41.816Z,5.20
2018-12-12T13:39:12.015Z,5.16
2018-12-12T13:41:42.039Z,5.08
2018-12-12T13:44:12.725Z,5.07
2018-12-12T13:46:42.327Z,4.98
2018-12-12T13:49:12.943Z,5.03
2018-12-12T13:51:42.804Z,5.06
2018-12-12T13:54:13.309Z,5.09
2018-12-12T13:56:42.810Z,5.08
2018-12-12T13:59:12.736Z,5.07
2018-12-12T14:01:42.876Z,5.10
2018-12-12T14:04:13.298Z,5.16
2018-12-12T14:06:43.718Z,5.21
2018-12-12T14:09:14.400Z,5.26
2018-12-12T14:11:44.618Z,5.32
2018-12-12T14:14:19.027Z,5.40
2018-12-12T14:16:48.707Z,5.45
2018-12-12T14:19:19.120Z,5.39
2018-12-12T14:21:48.726Z,5.32
2018-12-12T14:24:19.199Z,5.21
2018-12-12T14:26:49.492Z,5.12
2018-12-12T14:29:19.854Z,5.06
2018-12-12T14:31:49.734Z,5.02
2018-12-12T14:34:22.406Z,4.87
2018-12-12T14:36:52.519Z,4.81
2018-12-12T14:39:22.822Z,4.75
2018-12-12T14:41:53.309Z,4.69
2018-12-12T14:44:22.882Z,4.61
2018-12-12T14:46:55.499Z,4.56
2018-12-12T14:49:25.175Z,4.52
2018-12-12T14:51:54.810Z,4.49
2018-12-12T14:54:24.737Z,4.45
2018-12-12T14:56:54.546Z,4.43
2018-12-12T14:59:24.278Z,4.39
2018-12-12T15:01:53.777Z,4.36
2018-12-12T15:04:23.639Z,4.33
2018-12-12T15:06:53.590Z,4.27
2018-12-12T15:09:23.583Z,4.17
2018-12-12T15:11:54.011Z,4.13
2018-12-12T15:14:24.092Z,4.12
2018-12-12T15:16:54.246Z,4.10
2018-12-12T15:19:23.979Z,4.08
2018-12-12T15:21:54.173Z,4.08
2018-12-12T15:24:23.926Z,4.03
2018-12-12T15:26:53.966Z,3.97
2018-12-12T15:29:23.885Z,3.94
2018-12-12T15:31:53.967Z,3.91
2018-12-12T15:34:23.794Z,3.88
2018-12-12T15:36:53.792Z,3.87
2018-12-12T15:39:23.791Z,3.82
2018-12-12T15:41:54.014Z,3.81
2018-12-12T15:44:23.464Z,3.79
2018-12-12T15:46:53.865Z,3.77
2018-12-12T15:49:23.762Z,3.77
2018-12-12T15:51:53.966Z,3.74
2018-12-12T15:54:24.616Z,3.76
2018-12-12T15:56:54.484Z,3.74
2018-12-12T15:59:24.341Z,3.71
2018-12-12T16:01:54.668Z,3.69
2018-12-12T16:04:24.752Z,3.68
2018-12-12T16:06:55.134Z,3.68
2018-12-12T16:09:25.235Z,3.68
2018-12-12T16:11:54.923Z,3.67
2018-12-12T16:14:24.915Z,3.69
2018-12-12T16:16:54.906Z,3.66
2018-12-12T16:19:25.186Z,3.66
2018-12-12T16:21:55.013Z,3.65
2018-12-12T16:24:24.800Z,3.61
2018-12-12T16:26:54.396Z,3.58
2018-12-12T16:29:24.357Z,3.56
2018-12-12T16:31:54.391Z,3.52
2018-12-12T16:34:24.358Z,3.48
2018-12-12T16:36:54.315Z,3.45
2018-12-12T16:39:26.383Z,3.43
2018-12-12T16:41:56.375Z,3.42
2018-12-12T16:44:26.188Z,3.44
2018-12-12T16:46:55.999Z,3.43
2018-12-12T16:49:26.307Z,3.45
2018-12-12T16:51:56.124Z,3.48
2018-12-12T16:54:28.845Z,3.50
2018-12-12T16:56:58.771Z,3.51
2018-12-12T16:59:31.574Z,3.55
2018-12-12T17:02:01.660Z,3.54
2018-12-12T17:04:31.979Z,3.59
2018-12-12T17:07:02.101Z,3.58
2018-12-12T17:09:31.970Z,3.55
2018-12-12T17:12:01.684Z,3.55
2018-12-12T17:14:31.339Z,3.55
2018-12-12T17:17:01.074Z,3.54
2018-12-12T17:19:30.922Z,3.52
2018-12-12T17:22:03.396Z,3.52
2018-12-12T17:24:33.792Z,3.53
2018-12-12T17:27:03.648Z,3.51
2018-12-12T17:29:33.390Z,3.53
2018-12-12T17:32:03.463Z,3.52
2018-12-12T17:34:33.577Z,3.48
2018-12-12T17:37:06.882Z,3.48
2018-12-12T17:39:37.048Z,3.45
2018-12-12T17:42:06.793Z,3.44
2018-12-12T17:44:36.776Z,3.45
2018-12-12T17:47:07.370Z,3.44
2018-12-12T17:49:37.775Z,3.43
2018-12-12T17:52:07.652Z,3.41
2018-12-12T17:54:37.361Z,3.41
2018-12-12T17:57:07.072Z,3.41
2018-12-12T17:59:37.053Z,3.41
2018-12-12T18:02:07.413Z,3.40
2018-12-12T18:04:37.234Z,3.41
2018-12-12T18:07:07.360Z,3.40
2018-12-12T18:09:37.918Z,3.37
2018-12-12T18:12:08.060Z,3.35
2018-12-12T18:14:38.022Z,3.32
2018-12-12T18:17:10.141Z,3.30
2018-12-12T18:19:40.341Z,3.29
2018-12-12T18:22:10.271Z,3.31
2018-12-12T18:24:39.906Z,3.31
2018-12-12T18:27:10.173Z,3.31
2018-12-12T18:29:40.071Z,3.27
2018-12-12T18:32:11.165Z,3.27
2018-12-12T18:34:41.231Z,3.28
2018-12-12T18:37:11.055Z,3.28
2018-12-12T18:39:41.063Z,3.28
2018-12-12T18:42:13.127Z,3.26
2018-12-12T18:44:42.585Z,3.31
2018-12-12T18:47:12.867Z,3.30
2018-12-12T18:49:42.595Z,3.27
2018-12-12T18:52:12.981Z,3.31
2018-12-12T18:54:42.711Z,3.26
2018-12-12T18:57:12.577Z,3.25
2018-12-12T18:59:42.152Z,3.23
2018-12-12T19:02:12.556Z,3.23
2018-12-12T19:04:42.428Z,3.22
2018-12-12T19:07:13.020Z,3.20
2018-12-12T19:09:43.275Z,3.20
2018-12-12T19:12:13.470Z,3.17
2018-12-12T19:15:02.176Z,3.18
2018-12-12T19:17:31.918Z,3.17
2018-12-12T19:20:02.726Z,3.12
2018-12-12T19:22:33.344Z,3.12
2018-12-12T19:25:04.013Z,3.12
2018-12-12T19:27:34.421Z,3.14
2018-12-12T19:30:04.212Z,3.11
2018-12-12T19:32:34.527Z,3.15
2018-12-12T19:35:04.881Z,3.10
2018-12-12T19:37:36.994Z,3.10
2018-12-12T19:40:09.307Z,3.12
2018-12-12T19:42:41.114Z,3.11
2018-12-12T19:45:11.132Z,3.08
2018-12-12T19:47:41.661Z,3.39
2018-12-12T19:50:11.268Z,3.54
2018-12-12T19:52:41.114Z,3.79
2018-12-12T19:55:13.281Z,3.86
2018-12-12T19:57:44.492Z,3.88
2018-12-12T20:00:14.672Z,3.84
2018-12-12T20:02:44.967Z,3.75
2018-12-12T20:05:15.834Z,3.65
2018-12-12T20:07:46.004Z,3.53
2018-12-12T20:10:16.027Z,3.46
2018-12-12T20:12:49.650Z,3.41
2018-12-12T20:15:37.460Z,3.35
2018-12-12T20:18:07.495Z,3.30
2018-12-12T20:20:37.902Z,3.25
2018-12-12T20:23:08.639Z,3.22
2018-12-12T20:25:38.805Z,-2.70
2018-12-12T20:28:08.495Z,3.18
2018-12-12T20:30:38.693Z,3.16
2018-12-12T20:33:09.561Z,3.15
2018-12-12T20:35:39.114Z,3.11
2018-12-12T20:38:15.563Z,3.10
2018-12-12T20:40:45.582Z,3.06
2018-12-12T20:43:15.618Z,3.12
2018-12-12T20:45:46.062Z,3.09
2018-12-12T20:48:18.820Z,3.05
2018-12-12T20:50:46.301Z,3.05
2018-12-12T20:53:18.775Z,3.03
2018-12-12T20:55:49.115Z,3.12
2018-12-12T20:58:18.657Z,3.10
2018-12-12T21:00:49.089Z,3.08
2018-12-12T21:03:19.099Z,3.10
2018-12-12T21:05:54.534Z,3.05
2018-12-12T21:08:20.136Z,3.00
2018-12-12T21:10:50.048Z,2.93
2018-12-12T21:13:19.475Z,2.90
2018-12-12T21:15:52.634Z,2.88
2018-12-12T21:18:25.737Z,2.85
2018-12-12T21:20:56.097Z,2.83
2018-12-12T21:23:26.222Z,2.80
2018-12-12T21:25:59.143Z,2.77
2018-12-12T21:28:26.239Z,2.73
2018-12-12T21:30:55.864Z,2.72
2018-12-12T21:33:28.491Z,2.69
2018-12-12T21:36:01.279Z,2.64
2018-12-12T21:38:31.493Z,2.60
2018-12-12T21:41:01.453Z,2.55
2018-12-12T21:43:34.136Z,2.49
2018-12-12T21:46:07.583Z,2.45
2018-12-12T21:48:37.503Z,2.39
2018-12-12T21:51:07.556Z,2.33
2018-12-12T21:53:37.779Z,2.32
2018-12-12T21:56:07.592Z,2.32
2018-12-12T21:58:38.170Z,2.33
2018-12-12T22:01:08.152Z,2.36
2018-12-12T22:03:37.973Z,2.39
2018-12-12T22:06:07.709Z,2.42
2018-12-12T22:08:37.939Z,2.45
2018-12-12T22:11:11.259Z,2.53
2018-12-12T22:13:47.806Z,2.50
2018-12-12T22:16:15.298Z,2.47
2018-12-12T22:18:45.252Z,2.46
2018-12-12T22:21:19.758Z,2.43
2018-12-12T22:23:50.286Z,2.39
2018-12-12T22:26:19.910Z,2.33
2018-12-12T22:28:49.884Z,2.28
2018-12-12T22:31:19.908Z,2.23
2018-12-12T22:33:50.227Z,2.16
2018-12-12T22:36:23.118Z,2.08
2018-12-12T22:38:53.390Z,1.99
2018-12-12T22:41:23.064Z,1.89
2018-12-12T22:43:53.484Z,1.80
2018-12-12T22:46:23.822Z,1.71
2018-12-12T22:48:55.370Z,1.62
2018-12-12T22:51:25.119Z,2.24
2018-12-12T22:53:54.858Z,2.49
2018-12-12T22:56:25.185Z,2.36
2018-12-12T22:58:55.667Z,2.16
2018-12-12T23:01:25.817Z,1.96
2018-12-12T23:03:59.353Z,1.76
2018-12-12T23:06:31.835Z,1.59
2018-12-12T23:09:01.876Z,1.44
2018-12-12T23:11:31.924Z,1.30
2018-12-12T23:14:04.700Z,1.21
2018-12-12T23:16:34.615Z,1.08
2018-12-12T23:19:06.464Z,-0.76
2018-12-12T23:21:40.201Z,0.94
2018-12-12T23:24:09.853Z,0.91
2018-12-12T23:26:40.219Z,0.84
2018-12-12T23:29:12.344Z,0.81
2018-12-12T23:31:39.865Z,0.78
2018-12-12T23:34:09.938Z,0.75
2018-12-12T23:36:39.854Z,0.72
2018-12-12T23:39:10.021Z,0.70
2018-12-12T23:41:45.305Z,0.68
2018-12-12T23:44:15.423Z,0.65
2018-12-12T23:46:45.477Z,0.63
2018-12-12T23:49:15.585Z,0.58
2018-12-12T23:51:47.632Z,0.57
2018-12-12T23:54:17.848Z,0.54
2018-12-12T23:56:47.903Z,0.52
2018-12-12T23:59:19.880Z,0.50
